Wednesday, January 17, 2018, 8:16 AM EST
Back to Local

KHIE, Mt Washington Regional Airport

Location: Jefferson, NH, United States Lat: 44.367
Local Time: 8:16 AM EST (13:16 GMT) Lon: -71.55
Time Zone: US/Eastern Elev: 1072 ft

Show me the last for .
Show Decoded

2018-01-17 07:52 METAR KHIE 171252Z AUTO 00000KT 3SM -SN BR OVC060 M07/M08 A3027 RMK AO2 SLP272
                 P0000 T10671078 =
2018-01-17 06:52 METAR KHIE 171152Z AUTO 00000KT 3SM -SN BR OVC040 M07/M07 A3029 RMK AO2 SLP278
                 P0000 60004 70006 T10671072 11061 21067 58004 =
2018-01-17 06:39 METAR KHIE 171139Z AUTO 00000KT 3SM -SN BR OVC038 M07/M08 A3029 RMK AO2 P0000
                 T10671078 =
2018-01-17 06:12 METAR KHIE 171112Z AUTO 00000KT 2 1/2SM -SN BR OVC033 M07/M07 A3029 RMK AO2
                 P0000 T10671072 =
2018-01-17 05:52 METAR KHIE 171052Z AUTO 00000KT 3SM -SN BR OVC031 M06/M07 A3029 RMK AO2 SLP278
                 P0001 T10611072 =
2018-01-17 05:50 METAR KHIE 171050Z AUTO 00000KT 3SM -SN BR OVC031 M06/M07 A3030 RMK AO2 P0001 =
2018-01-17 05:23 METAR KHIE 171023Z AUTO 00000KT 2SM -SN BR OVC023 M06/M07 A3030 RMK AO2 P0001
                 T10611072 =
2018-01-17 04:59 METAR KHIE 170959Z AUTO 00000KT 1 3/4SM -SN BR OVC025 M06/M08 A3030 RMK AO2
                 P0000 T10611078 =
2018-01-17 04:52 METAR KHIE 170952Z AUTO 00000KT 2SM -SN BR OVC027 M06/M08 A3030 RMK AO2 SLP280
                 P0001 T10611078 =
2018-01-17 04:34 METAR KHIE 170934Z AUTO 00000KT 2SM -SN BR OVC028 M06/M07 A3030 RMK AO2 P0001
                 T10611072 =
2018-01-17 03:52 METAR KHIE 170852Z AUTO 00000KT 1 3/4SM -SN BR OVC029 M07/M08 A3030 RMK AO2
                 SLP281 P0001 60002 T10671078 56008 =
2018-01-17 03:39 METAR KHIE 170839Z AUTO 00000KT 1 3/4SM -SN BR OVC031 M07/M07 A3031 RMK AO2
                 P0001 T10671072 =
2018-01-17 02:52 METAR KHIE 170752Z AUTO 00000KT 1 3/4SM -SN BR OVC025 M07/M08 A3031 RMK AO2
                 SLP284 P0000 T10671078 =
2018-01-17 01:52 METAR KHIE 170652Z AUTO 00000KT 1 3/4SM -SN BR OVC024 M07/M08 A3031 RMK AO2
                 SLP286 P0001 T10671078 =
2018-01-17 00:52 METAR KHIE 170552Z AUTO 00000KT 1 1/2SM -SN BR OVC019 M07/M08 A3033 RMK AO2
                 SLP290 P0002 60002 T10671078 11067 21078 58008 =
2018-01-17 00:01 METAR KHIE 170501Z AUTO 00000KT 1 3/4SM -SN BR OVC025 M07/M08 A3034 RMK AO2
                 P0000 T10671078 =
2018-01-16 23:52 METAR KHIE 170452Z AUTO 00000KT 2SM -SN BR OVC029 M07/M08 A3034 RMK AO2 SLP294
                 P0000 T10671078 410561189 =
2018-01-16 23:22 METAR KHIE 170422Z AUTO 00000KT 3SM -SN BR OVC037 M07/M08 A3034 RMK AO2 P0000
                 T10671083 =
2018-01-16 22:52 METAR KHIE 170352Z AUTO 00000KT 2 1/2SM -SN BR OVC035 M07/M08 A3034 RMK AO2
                 SLP297 P0000 T10721083 =
2018-01-16 22:45 METAR KHIE 170345Z AUTO 00000KT 2 1/2SM -SN BR OVC035 M07/M08 A3035 RMK AO2
                 P0000 T10671078 =
2018-01-16 22:10 METAR KHIE 170310Z AUTO 00000KT 3SM -SN BR OVC038 M07/M08 A3035 RMK AO2 P0000
                 T10671083 =
2018-01-16 21:52 METAR KHIE 170252Z AUTO 00000KT 2 1/2SM -SN BR OVC038 M07/M08 A3035 RMK AO2
                 SLP302 P0000 60000 T10721078 58006 =
2018-01-16 21:42 METAR KHIE 170242Z AUTO 00000KT 2 1/2SM -SN BR OVC040 M07/M08 A3035 RMK AO2
                 P0000 T10721083 =
2018-01-16 20:52 METAR KHIE 170152Z AUTO 00000KT 8SM -SN OVC060 M07/M08 A3036 RMK AO2 SNB11E23B51
                 SLP304 P0000 T10721083 =
2018-01-16 19:52 METAR KHIE 170052Z AUTO 00000KT 10SM SCT065 OVC085 M07/M08 A3036 RMK AO2
                 SNB2354E13 SLP307 P0000 T10721083 =
2018-01-16 18:52 METAR KHIE 162352Z AUTO 00000KT 9SM OVC065 M07/M08 A3037 RMK AO2 SNE38 SLP309
                 P0000 60000 T10671078 11056 21072 50006 =
2018-01-16 17:52 METAR KHIE 162252Z AUTO 00000KT 4SM -SN BR OVC040 M07/M08 A3037 RMK AO2 SNB31
                 SLP309 P0000 T10671078 =
2018-01-16 17:29 METAR KHIE 162229Z AUTO 00000KT 9SM BKN030 OVC039 M06/M08 A3036 RMK AO2
                 T10611083 =
2018-01-16 16:52 METAR KHIE 162152Z AUTO 00000KT 10SM OVC027 M06/M08 A3036 RMK AO2 SLP306
                 T10611083 =
2018-01-16 15:52 METAR KHIE 162052Z AUTO 00000KT 10SM OVC027 M06/M09 A3035 RMK AO2 SLP302
                 T10561089 50001 =
2018-01-16 14:52 METAR KHIE 161952Z AUTO 00000KT 10SM BKN028 OVC044 M06/M09 A3035 RMK AO2 SLP304
                 T10611094 =
2018-01-16 13:52 METAR KHIE 161852Z AUTO 00000KT 10SM OVC049 M07/M10 A3035 RMK AO2 SLP302
                 T10671100 =
2018-01-16 12:52 METAR KHIE 161752Z AUTO 00000KT 9SM OVC055 M07/M10 A3035 RMK AO2 SNE47 SLP305
                 P0000 60000 T10721100 11072 21144 58019 =
2018-01-16 11:52 METAR KHIE 161652Z AUTO 00000KT 4SM -SN BKN038 BKN046 OVC060 M08/M11 A3037 RMK
                 AO2 SNB02 SLP309 P0000 T10781111 =
2018-01-16 11:39 METAR KHIE 161639Z AUTO 00000KT 3SM -SN BKN034 OVC046 M08/M11 A3037 RMK AO2
                 SNB02 P0000 T10781111 =
2018-01-16 11:31 METAR KHIE 161631Z AUTO 00000KT 2 1/2SM -SN BKN032 OVC046 M08/M11 A3038 RMK AO2
                 SNB02 P0000 T10831111 =
2018-01-16 11:19 METAR KHIE 161619Z AUTO 00000KT 2SM -SN OVC028 M08/M12 A3039 RMK AO2 SNB02 P0000
                 T10781117 =
2018-01-16 10:52 METAR KHIE 161552Z AUTO 00000KT 10SM OVC029 M09/M12 A3041 RMK AO2 SLP323
                 T10891122 =
2018-01-16 10:39 METAR KHIE 161539Z AUTO 00000KT 10SM OVC029 M09/M13 A3041 RMK AO2 T10941128 =
2018-01-16 09:52 METAR KHIE 161452Z AUTO 00000KT 4SM BR BKN032 M12/M14 A3041 RMK AO2 SNE05 SLP325
                 P0000 60000 T11171139 50002 =
2018-01-16 09:08 METAR KHIE 161408Z AUTO 00000KT 4SM BR FEW030 BKN037 BKN049 M13/M15 A3041 RMK
                 AO2 SNE05 P0000 T11281150 =
2018-01-16 08:52 METAR KHIE 161352Z AUTO 00000KT 2 1/2SM -SN BR BKN033 OVC047 M13/M15 A3042 RMK
                 AO2 SLP328 P0000 T11281150 =
2018-01-16 08:47 METAR KHIE 161347Z AUTO 00000KT 3SM -SN BR FEW030 BKN036 OVC047 M13/M15 A3041
                 RMK AO2 P0000 =

Support USWX by starting your Amazon purchase here.